createdAt,value
2023-03-10T00:01:51.009Z,98294.34
2023-03-10T00:06:52.542Z,98296.69
2023-03-10T00:11:54.097Z,98303.78
2023-03-10T00:16:55.634Z,98287.28
2023-03-10T00:21:57.253Z,98279.13
2023-03-10T00:26:58.891Z,98282.50
2023-03-10T00:32:02.689Z,98272.88
2023-03-10T00:37:04.598Z,98272.69
2023-03-10T00:42:06.302Z,98281.22
2023-03-10T00:47:09.275Z,98276.63
2023-03-10T00:52:10.957Z,98295.06
2023-03-10T00:57:13.067Z,98274.84
2023-03-10T01:02:16.010Z,98285.38
2023-03-10T01:07:19.005Z,98286.75
2023-03-10T01:12:21.757Z,98271.84
2023-03-10T01:17:24.346Z,98265.31
2023-03-10T01:22:28.604Z,98265.03
2023-03-10T01:27:31.380Z,98267.66
2023-03-10T01:32:34.344Z,98266.06
2023-03-10T01:37:37.028Z,98261.28
2023-03-10T01:42:40.182Z,98254.19
2023-03-10T01:47:43.249Z,98267.91
2023-03-10T01:52:49.273Z,98255.56
2023-03-10T01:57:56.241Z,98261.09
2023-03-10T02:03:12.299Z,98264.75
2023-03-10T02:08:15.516Z,98260.88
2023-03-10T02:13:17.381Z,98265.34
2023-03-10T02:18:23.200Z,98269.88
2023-03-10T02:24:00.463Z,98267.56
2023-03-10T02:29:05.895Z,98270.19
2023-03-10T02:34:08.031Z,98260.25
2023-03-10T02:39:10.677Z,98262.09
2023-03-10T02:44:17.079Z,98252.56
2023-03-10T02:49:23.327Z,98256.19
2023-03-10T02:54:26.912Z,98259.44
2023-03-10T02:59:28.585Z,98252.84
2023-03-10T03:04:31.253Z,98246.25
2023-03-10T03:09:33.494Z,98243.88
2023-03-10T03:14:35.239Z,98234.09
2023-03-10T03:19:39.600Z,98232.38
2023-03-10T03:24:41.455Z,98234.91
2023-03-10T03:29:43.737Z,98237.00
2023-03-10T03:34:46.271Z,98237.00
2023-03-10T03:39:49.443Z,98226.25
2023-03-10T03:44:51.687Z,98217.09
2023-03-10T03:49:55.727Z,98225.81
2023-03-10T03:54:58.068Z,98238.63
2023-03-10T03:59:59.890Z,98236.59
2023-03-10T04:05:04.481Z,98224.63
2023-03-10T04:10:10.918Z,98215.06
2023-03-10T04:15:14.062Z,98224.44
2023-03-10T04:20:15.871Z,98221.06
2023-03-10T04:25:22.058Z,98211.63
2023-03-10T04:30:25.991Z,98204.31
2023-03-10T04:35:29.590Z,98189.47
2023-03-10T04:40:32.971Z,98178.91
2023-03-10T04:45:36.102Z,98169.47
2023-03-10T04:50:38.270Z,98172.72
2023-03-10T04:55:40.410Z,98159.78
2023-03-10T05:00:56.518Z,98159.97
2023-03-10T05:06:04.667Z,98158.81
2023-03-10T05:11:07.571Z,98160.06
2023-03-10T05:16:20.475Z,98146.03
2023-03-10T05:21:25.137Z,98142.13
2023-03-10T05:26:29.605Z,98147.25
2023-03-10T05:31:31.768Z,98135.59
2023-03-10T05:36:40.798Z,98142.97
2023-03-10T05:41:42.850Z,98147.47
2023-03-10T05:46:45.127Z,98146.06
2023-03-10T05:51:47.574Z,98141.41
2023-03-10T05:56:49.583Z,98147.41
2023-03-10T06:01:52.563Z,98140.13
2023-03-10T06:06:54.746Z,98149.56
2023-03-10T06:11:57.526Z,98147.31
2023-03-10T06:16:59.277Z,98144.44
2023-03-10T06:22:00.906Z,98144.34
2023-03-10T06:27:02.474Z,98151.78
2023-03-10T06:32:04.602Z,98156.81
2023-03-10T06:37:06.260Z,98156.16
2023-03-10T06:42:08.056Z,98155.03
2023-03-10T06:47:10.455Z,98156.81
2023-03-10T06:52:12.002Z,98145.63
2023-03-10T06:57:13.535Z,98146.59
2023-03-10T07:02:15.618Z,98148.50
2023-03-10T07:07:17.348Z,98152.50
2023-03-10T07:12:19.172Z,98154.38
2023-03-10T07:17:20.929Z,98162.28
2023-03-10T07:22:22.957Z,98166.16
2023-03-10T07:27:24.566Z,98154.94
2023-03-10T07:32:26.129Z,98176.47
2023-03-10T07:37:27.878Z,98182.13
2023-03-10T07:42:29.614Z,98177.09
2023-03-10T07:47:32.598Z,98190.31
2023-03-10T07:52:34.173Z,98178.06
2023-03-10T07:57:36.164Z,98187.09
2023-03-10T08:02:38.226Z,98185.00
2023-03-10T08:07:40.258Z,98184.84
2023-03-10T08:12:41.910Z,98189.25
2023-03-10T08:17:43.535Z,98201.84
2023-03-10T08:22:45.151Z,98202.22
2023-03-10T08:27:46.677Z,98205.66
2023-03-10T08:32:48.373Z,98211.41
2023-03-10T08:37:55.086Z,98213.59
2023-03-10T08:42:57.068Z,98218.91
2023-03-10T08:47:58.704Z,98214.16
2023-03-10T08:53:01.137Z,98210.22
2023-03-10T08:58:02.860Z,98202.63
2023-03-10T09:03:04.646Z,98209.19
2023-03-10T09:08:06.304Z,98207.63
2023-03-10T09:13:14.080Z,98205.78
2023-03-10T09:18:16.698Z,98216.59
2023-03-10T09:23:19.719Z,98214.56
2023-03-10T09:28:21.480Z,98222.13
2023-03-10T09:33:23.969Z,98223.94
2023-03-10T09:38:27.585Z,98222.91
2023-03-10T09:43:36.047Z,98226.56
2023-03-10T09:48:52.508Z,98220.25
2023-03-10T09:53:54.526Z,98235.78
2023-03-10T09:59:02.845Z,98218.13
2023-03-10T10:04:19.553Z,98213.59
2023-03-10T10:09:30.033Z,98214.31
2023-03-10T10:14:31.822Z,98227.81
2023-03-10T10:19:36.337Z,98230.41
2023-03-10T10:24:38.605Z,98223.03
2023-03-10T10:29:40.120Z,98212.31
2023-03-10T10:34:46.930Z,98230.78
2023-03-10T10:39:52.258Z,98226.03
2023-03-10T10:45:26.442Z,98224.06
2023-03-10T10:50:34.295Z,98224.09
2023-03-10T10:55:36.137Z,98219.66
2023-03-10T11:00:39.027Z,98221.53
2023-03-10T11:05:40.680Z,98213.94
2023-03-10T11:10:42.596Z,98212.09
2023-03-10T11:16:09.638Z,98215.72
2023-03-10T11:21:23.211Z,98211.00
2023-03-10T11:26:51.748Z,98208.88
2023-03-10T11:32:14.122Z,98213.97
2023-03-10T11:37:24.219Z,98215.09
2023-03-10T11:42:42.609Z,98210.19
2023-03-10T11:48:19.152Z,98212.84
2023-03-10T11:53:34.365Z,98210.19
2023-03-10T11:58:53.835Z,98207.06
2023-03-10T12:04:02.437Z,98192.53
2023-03-10T12:09:04.792Z,98191.72
2023-03-10T12:14:06.636Z,98182.41
2023-03-10T12:19:08.855Z,98171.28
2023-03-10T12:24:47.739Z,98168.13
2023-03-10T12:29:49.984Z,98165.97
2023-03-10T12:35:30.020Z,98154.72
2023-03-10T12:40:49.038Z,98148.78
2023-03-10T12:45:50.962Z,98156.03
2023-03-10T12:51:03.800Z,98142.72
2023-03-10T12:56:33.035Z,98125.38
2023-03-10T13:01:54.776Z,98125.69
2023-03-10T13:06:59.255Z,98111.22
2023-03-10T13:12:18.085Z,98117.78
2023-03-10T13:17:28.648Z,98135.06
2023-03-10T13:22:31.722Z,98127.00
2023-03-10T13:27:35.371Z,98130.03
2023-03-10T13:32:37.040Z,98120.13
2023-03-10T13:37:39.105Z,98106.22
2023-03-10T13:42:44.526Z,98118.03
2023-03-10T13:47:46.664Z,98122.53
2023-03-10T13:52:54.807Z,98136.69
2023-03-10T13:57:58.549Z,98149.41
2023-03-10T14:03:00.462Z,98170.50
2023-03-10T14:08:02.618Z,98178.81
2023-03-10T14:13:05.133Z,98202.59
2023-03-10T14:18:07.114Z,98217.03
2023-03-10T14:23:18.320Z,98233.56
2023-03-10T14:28:27.623Z,98241.09
2023-03-10T14:33:29.893Z,98225.06
2023-03-10T14:38:32.041Z,98287.38
2023-03-10T14:43:34.156Z,98285.63
2023-03-10T14:48:38.458Z,98264.09
2023-03-10T14:53:41.562Z,98288.22
2023-03-10T14:58:49.688Z,98297.78
2023-03-10T15:03:54.726Z,98286.69
2023-03-10T15:08:58.361Z,98311.81
2023-03-10T15:14:00.716Z,98307.59
2023-03-10T15:19:02.293Z,98327.84
2023-03-10T15:24:04.833Z,98310.19
2023-03-10T15:29:10.679Z,98336.66
2023-03-10T15:34:12.574Z,98337.44
2023-03-10T15:39:22.030Z,98338.94
2023-03-10T15:44:30.775Z,98311.31
2023-03-10T15:49:32.382Z,98331.53
2023-03-10T15:54:34.316Z,98314.25
2023-03-10T15:59:36.267Z,98337.09
2023-03-10T16:04:38.334Z,98339.25
2023-03-10T16:09:40.103Z,98344.81
2023-03-10T16:14:41.619Z,98352.09
2023-03-10T16:19:43.119Z,98344.25
2023-03-10T16:24:44.697Z,98384.91
2023-03-10T16:29:46.253Z,98371.97
2023-03-10T16:34:47.763Z,98400.22
2023-03-10T16:39:53.227Z,98432.91
2023-03-10T16:44:55.882Z,98440.31
2023-03-10T16:49:57.391Z,98530.75
2023-03-10T16:54:59.908Z,98613.28
2023-03-10T17:00:01.447Z,98652.44
2023-03-10T17:05:02.964Z,98709.72
2023-03-10T17:10:04.878Z,98736.47
2023-03-10T17:15:07.177Z,98786.13
2023-03-10T17:20:10.308Z,98839.22
2023-03-10T17:25:13.653Z,98897.88
2023-03-10T17:30:15.767Z,98916.72
2023-03-10T17:35:17.386Z,98929.47
2023-03-10T17:40:20.492Z,98958.38
2023-03-10T17:45:22.623Z,98973.44
2023-03-10T17:50:24.352Z,99000.56
2023-03-10T17:55:26.921Z,99043.56
2023-03-10T18:00:29.743Z,99058.16
2023-03-10T18:05:31.923Z,99095.72
2023-03-10T18:10:33.666Z,99103.41
2023-03-10T18:15:35.915Z,99134.63
2023-03-10T18:20:37.525Z,99148.22
2023-03-10T18:25:42.871Z,99169.69
2023-03-10T18:30:46.845Z,99189.63
2023-03-10T18:35:48.766Z,99239.53
2023-03-10T18:40:58.507Z,99251.63
2023-03-10T18:46:01.543Z,99279.03
2023-03-10T18:51:04.098Z,99307.81
2023-03-10T18:56:07.109Z,99323.53
2023-03-10T19:01:14.886Z,99341.47
2023-03-10T19:06:17.604Z,99342.94
2023-03-10T19:11:19.632Z,99362.81
2023-03-10T19:16:21.246Z,99357.94
2023-03-10T19:21:23.637Z,99387.22
2023-03-10T19:26:25.545Z,99399.03
2023-03-10T19:31:27.508Z,99418.94
2023-03-10T19:36:29.202Z,99423.63
2023-03-10T19:41:30.745Z,99439.63
2023-03-10T19:46:32.915Z,99472.16
2023-03-10T19:51:34.908Z,99500.94
2023-03-10T19:56:36.628Z,99509.66
2023-03-10T20:01:39.233Z,99518.91
2023-03-10T20:06:42.618Z,99521.81
2023-03-10T20:11:44.577Z,99545.28
2023-03-10T20:16:47.280Z,99555.94
2023-03-10T20:21:51.271Z,99569.66
2023-03-10T20:26:54.093Z,99597.13
2023-03-10T20:31:56.403Z,99596.94
2023-03-10T20:36:58.340Z,99598.06
2023-03-10T20:42:00.516Z,99613.44
2023-03-10T20:47:02.030Z,99622.00
2023-03-10T20:52:04.064Z,99632.69
2023-03-10T20:57:06.023Z,99663.09
2023-03-10T21:02:08.021Z,99657.16
2023-03-10T21:07:11.103Z,99663.59
2023-03-10T21:12:13.510Z,99684.63
2023-03-10T21:17:15.369Z,99681.00
2023-03-10T21:22:16.877Z,99694.47
2023-03-10T21:27:18.421Z,99692.78
2023-03-10T21:32:20.465Z,99707.13
2023-03-10T21:37:23.006Z,99720.63
2023-03-10T21:42:25.856Z,99716.63
2023-03-10T21:47:28.191Z,99727.16
2023-03-10T21:52:30.018Z,99735.41
2023-03-10T21:57:31.712Z,99764.59
2023-03-10T22:02:33.391Z,99781.59
2023-03-10T22:07:35.079Z,99787.78
2023-03-10T22:12:36.754Z,99794.06
2023-03-10T22:17:38.376Z,99803.47
2023-03-10T22:22:39.931Z,99813.34
2023-03-10T22:27:42.483Z,99821.78
2023-03-10T22:32:44.264Z,99840.94
2023-03-10T22:37:46.024Z,99835.91
2023-03-10T22:42:47.761Z,99840.81
2023-03-10T22:47:53.027Z,99848.59
2023-03-10T22:52:55.002Z,99855.13
2023-03-10T22:57:56.751Z,99869.19
2023-03-10T23:02:58.587Z,99878.25
2023-03-10T23:08:00.824Z,99893.66
2023-03-10T23:13:06.625Z,99889.97
2023-03-10T23:18:09.192Z,99901.94
2023-03-10T23:23:13.419Z,99898.91
2023-03-10T23:28:16.269Z,99896.44
2023-03-10T23:33:22.003Z,99904.34
2023-03-10T23:38:26.926Z,99908.03
2023-03-10T23:43:29.694Z,99919.78
2023-03-10T23:48:31.877Z,99945.44
2023-03-10T23:53:33.926Z,99946.00
2023-03-10T23:58:35.903Z,99965.25
